Time;durP1;ratioP1;P1;durP2;ratioP2;P2;SDS_P1;SDS_P2;PMS_P1;PMS_P2;Temp;Humidity;BMP_temperature;BMP_pressure;BME280_temperature;BME280_humidity;BME280_pressure;Samples;Min_cycle;Max_cycle;Signal;HPM_P1;HPM_P2
2022/02/10 00:21:11;;;;;;;;;;;;;;;;;;5033133;28;20509;-78
2022/02/10 00:23:53;;;;;;;13.50;10.50;;;;;;;;;;5031481;28;19956;-79
2022/02/10 00:34:28;;;;;;;28.35;18.85;;;;;;;;;;5032445;28;20107;-79
2022/02/10 00:37:10;;;;;;;27.63;17.95;;;;;;;;;;5031337;28;20603;-79
2022/02/10 00:42:20;;;;;;;33.30;20.20;;;;;;;;;;5032829;28;20099;-79
2022/02/10 00:44:46;;;;;;;29.75;21.23;;;;;;;;;;5032180;28;20037;-79
2022/02/10 00:47:13;;;;;;;37.25;25.45;;;;;;;;;;5032395;28;20076;-79
2022/02/10 00:49:40;;;;;;;53.00;37.17;;;;;;;;;;5032220;28;20023;-79
2022/02/10 00:52:07;;;;;;;53.75;37.30;;;;;;;;;;5032129;28;20057;-79
2022/02/10 00:54:37;;;;;;;44.88;31.90;;;;;;;;;;5032316;28;20025;-78
2022/02/10 00:57:07;;;;;;;36.50;26.08;;;;;;;;;;5031007;28;20040;-79
2022/02/10 01:31:46;;;;;;;11.23;8.80;;;;;;;;;;5032416;28;20409;-79
2022/02/10 01:34:12;;;;;;;12.52;10.30;;;;;;;;;;5034192;28;20033;-78
2022/02/10 01:36:38;;;;;;;9.52;8.45;;;;;;;;;;5035885;28;20052;-78
2022/02/10 01:39:05;;;;;;;10.73;9.15;;;;;;;;;;5035654;28;20025;-79
2022/02/10 01:58:36;;;;;;;;;;;;;;;;;;5035853;28;20032;-79
2022/02/10 02:03:49;;;;;;;14.75;11.65;;;;;;;;;;5035214;28;20068;-77
2022/02/10 02:06:23;;;;;;;12.27;10.95;;;;;;;;;;5035128;28;20034;-79
2022/02/10 02:08:49;;;;;;;12.40;10.15;;;;;;;;;;5035181;28;20472;-79
2022/02/10 02:11:15;;;;;;;10.18;8.98;;;;;;;;;;5034904;28;20060;-78
2022/02/10 02:13:42;;;;;;;10.90;9.18;;;;;;;;;;5035002;28;20026;-79
2022/02/10 02:16:08;;;;;;;14.95;11.57;;;;;;;;;;5034827;28;20025;-78
2022/02/10 02:18:34;;;;;;;11.15;9.00;;;;;;;;;;5035084;28;20040;-78
2022/02/10 02:21:00;;;;;;;11.02;9.00;;;;;;;;;;5034874;28;20025;-79
2022/02/10 02:23:28;;;;;;;10.70;8.85;;;;;;;;;;5034711;28;20033;-79
2022/02/10 02:26:18;;;;;;;11.63;9.07;;;;;;;;;;5034632;28;20500;-79
2022/02/10 02:28:49;;;;;;;9.93;7.80;;;;;;;;;;5033710;28;20399;-79
2022/02/10 02:31:22;;;;;;;11.57;8.57;;;;;;;;;;5034741;28;20939;-78
2022/02/10 03:06:44;;;;;;;18.25;12.93;;;;;;;;;;5018044;28;20037;-78
2022/02/10 03:09:15;;;;;;;18.17;14.32;;;;;;;;;;5033944;28;20079;-78
2022/02/10 03:11:43;;;;;;;20.92;15.88;;;;;;;;;;5033804;28;20033;-77
2022/02/10 04:32:11;;;;;;;14.73;12.15;;;;;;;;;;5032735;28;20379;-77
2022/02/10 05:36:03;;;;;;;29.60;21.17;;;;;;;;;;5035940;28;20101;-78
2022/02/10 05:38:36;;;;;;;26.67;19.45;;;;;;;;;;5035598;28;20076;-78
2022/02/10 05:56:55;;;;;;;97.57;63.10;;;;;;;;;;5035468;28;20391;-78
2022/02/10 06:41:51;;;;;;;44.55;30.88;;;;;;;;;;5028162;28;20079;-77
2022/02/10 08:56:16;;;;;;;18.08;12.60;;;;;;;;;;5029304;28;20115;-79
2022/02/10 09:03:53;;;;;;;17.00;12.63;;;;;;;;;;5030261;28;20491;-78
2022/02/10 09:18:15;;;;;;;13.02;10.65;;;;;;;;;;5029343;28;20088;-80
2022/02/10 09:55:53;;;;;;;12.80;9.65;;;;;;;;;;5030229;28;20059;-77
2022/02/10 10:01:14;;;;;;;11.68;9.88;;;;;;;;;;5033663;28;20075;-75
2022/02/10 10:03:45;;;;;;;21.73;11.65;;;;;;;;;;5033857;28;20056;-76
2022/02/10 10:06:17;;;;;;;11.50;10.27;;;;;;;;;;5033825;28;20075;-77
2022/02/10 10:14:24;;;;;;;14.15;11.57;;;;;;;;;;5023101;28;20113;-78
2022/02/10 10:19:49;;;;;;;14.13;12.02;;;;;;;;;;5015566;28;20041;-78
2022/02/10 10:22:41;;;;;;;22.17;17.08;;;;;;;;;;5032816;28;20491;-78
2022/02/10 10:25:25;;;;;;;16.15;13.43;;;;;;;;;;5032828;28;20451;-79
2022/02/10 10:58:38;;;;;;;17.60;14.00;;;;;;;;;;5032072;28;20041;-78
2022/02/10 14:14:31;;;;;;;5.65;4.70;;;;;;;;;;5023868;28;20030;-77
2022/02/10 14:17:08;;;;;;;7.03;5.65;;;;;;;;;;5024584;28;20038;-74
2022/02/10 14:22:25;;;;;;;11.77;6.35;;;;;;;;;;5028718;28;20444;-78
2022/02/10 14:27:39;;;;;;;7.40;5.43;;;;;;;;;;5024735;28;20315;-78
2022/02/10 14:30:11;;;;;;;4.75;4.18;;;;;;;;;;5024971;28;20670;-80
2022/02/10 14:32:42;;;;;;;5.50;4.35;;;;;;;;;;5024623;28;20089;-79
2022/02/10 14:35:26;;;;;;;7.20;5.30;;;;;;;;;;5034406;28;20116;-79
2022/02/10 14:38:12;;;;;;;6.85;5.57;;;;;;;;;;5033457;28;20033;-81
2022/02/10 16:13:35;;;;;;;50.10;39.83;;;;;;;;;;5011847;28;20036;-78
2022/02/10 16:18:12;;;;;;;32.40;26.48;;;;;;;;;;5013077;28;20079;-79
2022/02/10 16:20:38;;;;;;;58.00;39.83;;;;;;;;;;5011532;28;20033;-79
2022/02/10 16:23:07;;;;;;;122.65;73.15;;;;;;;;;;5013114;28;20044;-78
2022/02/10 16:25:36;;;;;;;95.03;65.60;;;;;;;;;;5025165;28;20072;-78
2022/02/10 16:28:24;;;;;;;90.95;67.65;;;;;;;;;;5032450;28;20488;-78
2022/02/10 16:30:51;;;;;;;85.95;59.30;;;;;;;;;;5032378;28;20044;-79
2022/02/10 16:33:17;;;;;;;72.45;48.67;;;;;;;;;;5032527;28;20025;-78
2022/02/10 16:35:44;;;;;;;58.65;43.53;;;;;;;;;;5032183;28;20049;-78
2022/02/10 16:38:10;;;;;;;56.97;43.20;;;;;;;;;;5032654;28;20125;-79
2022/02/10 16:40:39;;;;;;;49.28;37.80;;;;;;;;;;5032531;28;20386;-79
2022/02/10 16:43:05;;;;;;;58.28;40.40;;;;;;;;;;5032322;28;20026;-78
2022/02/10 16:45:31;;;;;;;54.35;44.25;;;;;;;;;;5032259;28;20113;-78
2022/02/10 16:47:58;;;;;;;75.22;56.67;;;;;;;;;;5032369;28;20056;-79
2022/02/10 16:50:24;;;;;;;97.07;63.75;;;;;;;;;;5032310;28;20065;-79
2022/02/10 16:52:59;;;;;;;97.10;64.30;;;;;;;;;;5014628;28;20036;-78
2022/02/10 17:25:06;;;;;;;101.18;68.05;;;;;;;;;;5035713;28;20033;-78
2022/02/10 17:27:18;;;;;;;;;;;;;;;;;;5036563;28;20041;-78
2022/02/10 17:35:32;;;;;;;;;;;;;;;;;;5036235;28;20403;-78
2022/02/10 17:46:19;;;;;;;36.33;28.40;;;;;;;;;;5033130;28;20060;-78
2022/02/10 17:51:42;;;;;;;75.75;57.97;;;;;;;;;;5035756;28;20131;-79
2022/02/10 17:54:09;;;;;;;69.95;52.90;;;;;;;;;;5035232;28;20025;-78
2022/02/10 17:56:36;;;;;;;101.68;79.82;;;;;;;;;;5017908;28;20522;-78
2022/02/10 17:59:02;;;;;;;52.35;40.88;;;;;;;;;;5035084;28;20490;-79
2022/02/10 18:01:29;;;;;;;48.22;37.42;;;;;;;;;;5035232;28;20021;-78
2022/02/10 18:03:55;;;;;;;65.70;47.35;;;;;;;;;;5035081;28;20104;-78
2022/02/10 18:06:29;;;;;;;108.00;85.55;;;;;;;;;;5034843;28;20030;-79
2022/02/10 18:09:24;;;;;;;148.55;112.55;;;;;;;;;;5034960;28;20036;-79
2022/02/10 18:14:35;;;;;;;189.80;142.50;;;;;;;;;;5034918;28;20044;-78
2022/02/10 18:17:12;;;;;;;189.07;136.20;;;;;;;;;;5034605;28;20030;-79
2022/02/10 18:19:49;;;;;;;179.40;134.55;;;;;;;;;;5017201;28;20091;-78
2022/02/10 18:33:40;;;;;;;132.65;98.00;;;;;;;;;;5034875;28;20060;-77
2022/02/10 19:08:25;;;;;;;100.32;70.32;;;;;;;;;;5034196;28;20452;-78
2022/02/10 19:10:57;;;;;;;83.47;59.15;;;;;;;;;;5016326;28;20029;-78
2022/02/10 19:13:23;;;;;;;64.95;47.03;;;;;;;;;;5034066;28;20028;-78
2022/02/10 19:15:51;;;;;;;104.93;72.63;;;;;;;;;;5033807;28;20128;-77
2022/02/10 19:18:17;;;;;;;60.03;44.05;;;;;;;;;;5033876;28;20017;-78
2022/02/10 19:20:43;;;;;;;51.30;38.67;;;;;;;;;;5033709;28;20018;-77
2022/02/10 19:23:10;;;;;;;38.65;30.30;;;;;;;;;;5033623;28;20104;-78
2022/02/10 19:25:38;;;;;;;44.50;33.13;;;;;;;;;;5033333;28;20068;-78
2022/02/10 19:28:05;;;;;;;61.20;45.35;;;;;;;;;;5032468;28;20048;-77
2022/02/10 19:30:35;;;;;;;99.35;75.10;;;;;;;;;;5033620;28;20035;-77
2022/02/10 19:33:03;;;;;;;81.90;59.75;;;;;;;;;;5033319;28;20053;-77
2022/02/10 19:35:30;;;;;;;87.20;65.10;;;;;;;;;;5015935;28;20124;-77
2022/02/10 19:38:00;;;;;;;67.22;49.15;;;;;;;;;;5033448;28;20026;-77
2022/02/10 19:40:27;;;;;;;92.88;66.10;;;;;;;;;;5033658;28;20033;-77
2022/02/10 19:42:55;;;;;;;114.03;82.57;;;;;;;;;;5033401;28;20029;-77
2022/02/10 19:45:21;;;;;;;123.05;89.15;;;;;;;;;;5033372;28;20443;-77
2022/02/10 19:47:48;;;;;;;135.45;97.80;;;;;;;;;;5033208;28;20358;-77
2022/02/10 19:50:16;;;;;;;140.75;102.28;;;;;;;;;;5033317;28;20491;-77
2022/02/10 19:52:47;;;;;;;182.38;130.75;;;;;;;;;;5033185;28;20032;-77
2022/02/10 19:55:18;;;;;;;157.48;111.90;;;;;;;;;;5015576;28;20045;-77
2022/02/10 19:57:45;;;;;;;171.43;118.13;;;;;;;;;;5015101;28;20404;-77
2022/02/10 20:00:16;;;;;;;169.48;118.93;;;;;;;;;;5033162;28;20033;-77
2022/02/10 20:02:42;;;;;;;136.90;99.13;;;;;;;;;;5032855;28;20067;-78
2022/02/10 20:05:08;;;;;;;175.82;120.15;;;;;;;;;;5032868;28;20034;-77
2022/02/10 20:07:38;;;;;;;176.95;121.32;;;;;;;;;;5033075;28;20037;-77
2022/02/10 20:10:08;;;;;;;132.93;98.75;;;;;;;;;;5033033;28;20036;-77
2022/02/10 20:12:37;;;;;;;140.38;98.80;;;;;;;;;;5015116;28;20090;-78
2022/02/10 20:15:04;;;;;;;119.22;85.22;;;;;;;;;;5015302;28;20030;-77
2022/02/10 20:17:30;;;;;;;65.32;47.83;;;;;;;;;;5032793;28;20025;-77
2022/02/10 20:19:56;;;;;;;40.88;28.92;;;;;;;;;;5015017;28;20475;-77
2022/02/10 20:22:22;;;;;;;45.92;32.42;;;;;;;;;;5032709;28;20074;-77
2022/02/10 20:24:59;;;;;;;34.35;26.40;;;;;;;;;;5031873;28;20053;-78
2022/02/10 20:27:28;;;;;;;53.25;37.67;;;;;;;;;;5014916;28;20060;-78
2022/02/10 20:29:54;;;;;;;83.00;58.15;;;;;;;;;;5032519;28;20036;-78
2022/02/10 20:32:21;;;;;;;124.47;89.57;;;;;;;;;;5032563;28;20022;-77
2022/02/10 20:34:48;;;;;;;131.23;93.85;;;;;;;;;;5032118;28;20025;-77
2022/02/10 20:37:14;;;;;;;126.53;87.18;;;;;;;;;;5032417;28;20033;-78
2022/02/10 20:39:41;;;;;;;124.22;86.65;;;;;;;;;;5014320;28;20029;-78
2022/02/10 20:42:13;;;;;;;116.90;80.60;;;;;;;;;;5014774;28;20025;-78
2022/02/10 20:44:46;;;;;;;104.47;72.18;;;;;;;;;;5014355;28;20029;-78
2022/02/10 20:47:16;;;;;;;93.13;67.22;;;;;;;;;;5032920;28;20026;-78
2022/02/10 20:49:42;;;;;;;87.15;64.53;;;;;;;;;;5032412;28;20113;-78
2022/02/10 20:52:09;;;;;;;83.95;58.38;;;;;;;;;;5032364;28;20028;-78
2022/02/10 20:54:35;;;;;;;78.93;57.47;;;;;;;;;;5014253;28;20036;-78
2022/02/10 20:57:03;;;;;;;74.88;52.28;;;;;;;;;;5032346;28;20091;-76
2022/02/10 20:59:37;;;;;;;92.80;62.70;;;;;;;;;;5032004;28;20021;-76
2022/02/10 21:02:13;;;;;;;106.63;68.90;;;;;;;;;;5032343;28;20029;-76
2022/02/10 21:05:05;;;;;;;101.22;68.55;;;;;;;;;;5032025;28;20885;-76
2022/02/10 21:10:04;;;;;;;64.43;45.47;;;;;;;;;;5032157;28;20029;-76
2022/02/10 21:12:35;;;;;;;55.22;40.42;;;;;;;;;;5014731;28;20429;-76
2022/02/10 21:15:07;;;;;;;35.22;26.23;;;;;;;;;;5031148;28;20091;-77
2022/02/10 21:17:44;;;;;;;42.60;30.50;;;;;;;;;;5031073;28;20018;-77
2022/02/10 21:20:11;;;;;;;56.03;37.80;;;;;;;;;;5023147;28;20022;-77
2022/02/10 21:22:43;;;;;;;128.00;69.30;;;;;;;;;;5021463;28;20449;-77
2022/02/10 21:30:21;;;;;;;132.57;85.03;;;;;;;;;;5023545;28;20051;-77
2022/02/10 21:38:23;;;;;;;94.82;57.13;;;;;;;;;;4986443;28;20393;-77
2022/02/10 22:10:24;;;;;;;94.60;65.10;;;;;;;;;;5017854;28;20048;-77
2022/02/10 22:18:34;;;;;;;60.30;39.00;;;;;;;;;;5015291;28;20549;-77
2022/02/10 22:21:03;;;;;;;55.70;37.78;;;;;;;;;;5013853;28;20068;-77
2022/02/10 22:23:32;;;;;;;39.55;28.65;;;;;;;;;;5013973;28;20034;-77
2022/02/10 22:26:05;;;;;;;38.40;24.30;;;;;;;;;;5014646;28;20133;-77
2022/02/10 22:28:41;;;;;;;37.03;23.17;;;;;;;;;;5013921;28;20468;-77
2022/02/10 22:36:40;;;;;;;53.05;35.30;;;;;;;;;;5015192;28;20037;-77
2022/02/10 22:39:06;;;;;;;52.28;34.45;;;;;;;;;;5014918;28;20034;-76
2022/02/10 22:41:33;;;;;;;59.65;37.70;;;;;;;;;;5014952;28;20053;-77
2022/02/10 22:44:03;;;;;;;65.45;42.45;;;;;;;;;;5014794;28;20080;-77
2022/02/10 22:46:30;;;;;;;61.65;38.60;;;;;;;;;;5014787;28;20032;-77
2022/02/10 22:48:56;;;;;;;46.80;31.63;;;;;;;;;;5014705;28;20072;-77
2022/02/10 22:51:23;;;;;;;33.65;23.73;;;;;;;;;;5014677;28;20365;-77
2022/02/10 22:53:50;;;;;;;31.00;21.25;;;;;;;;;;5014753;28;20105;-77
2022/02/10 22:56:17;;;;;;;28.42;21.00;;;;;;;;;;5014252;28;20037;-77
2022/02/10 22:58:44;;;;;;;33.67;23.67;;;;;;;;;;5014631;28;20026;-76
2022/02/10 23:04:11;;;;;;;53.63;32.45;;;;;;;;;;5017394;28;20052;-76
2022/02/10 23:06:38;;;;;;;41.28;25.52;;;;;;;;;;5014515;28;20057;-77
2022/02/10 23:11:49;;;;;;;54.65;33.58;;;;;;;;;;5014411;28;20041;-77
2022/02/10 23:14:17;;;;;;;59.13;36.65;;;;;;;;;;5018722;28;20030;-79
2022/02/10 23:16:46;;;;;;;57.88;35.55;;;;;;;;;;4996524;28;20057;-78
2022/02/10 23:19:12;;;;;;;55.67;35.55;;;;;;;;;;5014227;28;20022;-77
2022/02/10 23:21:38;;;;;;;55.50;35.45;;;;;;;;;;5012765;28;20084;-77
2022/02/10 23:24:05;;;;;;;59.22;36.13;;;;;;;;;;5013574;28;20087;-77
2022/02/10 23:26:31;;;;;;;50.65;30.40;;;;;;;;;;5012639;28;20384;-78
2022/02/10 23:29:05;;;;;;;31.35;20.27;;;;;;;;;;5014081;28;20453;-77
2022/02/10 23:31:31;;;;;;;23.87;16.43;;;;;;;;;;5013933;28;20486;-77
2022/02/10 23:34:01;;;;;;;29.35;18.73;;;;;;;;;;5013890;28;20025;-77
2022/02/10 23:39:23;;;;;;;60.30;36.65;;;;;;;;;;5013633;28;20041;-77
2022/02/10 23:42:01;;;;;;;54.05;32.50;;;;;;;;;;5013741;28;20021;-77
2022/02/10 23:47:23;;;;;;;45.88;30.27;;;;;;;;;;5013862;28;20483;-77
2022/02/10 23:49:51;;;;;;;47.40;31.15;;;;;;;;;;5026113;28;20029;-77
2022/02/10 23:52:18;;;;;;;37.80;27.05;;;;;;;;;;5033483;28;20131;-77
2022/02/10 23:54:48;;;;;;;49.90;31.25;;;;;;;;;;5015446;28;20429;-77
2022/02/10 23:57:43;;;;;;;55.47;33.38;;;;;;;;;;5033386;28;20027;-76
